sensor_id;sensor_type;location;lat;lon;timestamp;temperature;humidity
10905;DHT22;5505;51.450;9.254;2023-05-10T00:00:14;15.50;99.90
10905;DHT22;5505;51.450;9.254;2023-05-10T00:03:01;15.50;99.90
10905;DHT22;5505;51.450;9.254;2023-05-10T00:05:49;15.50;99.90
10905;DHT22;5505;51.450;9.254;2023-05-10T00:08:36;15.50;99.90
10905;DHT22;5505;51.450;9.254;2023-05-10T00:11:24;15.40;99.90
10905;DHT22;5505;51.450;9.254;2023-05-10T00:14:11;15.40;99.90
10905;DHT22;5505;51.450;9.254;2023-05-10T00:16:58;15.30;99.90
10905;DHT22;5505;51.450;9.254;2023-05-10T00:19:45;15.20;99.90
10905;DHT22;5505;51.450;9.254;2023-05-10T00:22:32;15.10;99.90
10905;DHT22;5505;51.450;9.254;2023-05-10T00:25:18;15.00;99.90
10905;DHT22;5505;51.450;9.254;2023-05-10T00:28:08;15.00;99.90
10905;DHT22;5505;51.450;9.254;2023-05-10T00:30:55;14.90;99.90
10905;DHT22;5505;51.450;9.254;2023-05-10T00:33:41;14.70;99.90
10905;DHT22;5505;51.450;9.254;2023-05-10T00:36:28;14.60;99.90
10905;DHT22;5505;51.450;9.254;2023-05-10T00:39:16;14.50;99.90
10905;DHT22;5505;51.450;9.254;2023-05-10T00:42:03;14.40;99.90
10905;DHT22;5505;51.450;9.254;2023-05-10T00:44:51;14.40;99.90
10905;DHT22;5505;51.450;9.254;2023-05-10T00:47:39;14.40;99.90
10905;DHT22;5505;51.450;9.254;2023-05-10T00:50:26;14.40;99.90
10905;DHT22;5505;51.450;9.254;2023-05-10T00:53:12;14.40;99.90
10905;DHT22;5505;51.450;9.254;2023-05-10T00:55:59;14.40;99.90
10905;DHT22;5505;51.450;9.254;2023-05-10T00:58:46;14.30;99.90
10905;DHT22;5505;51.450;9.254;2023-05-10T01:01:35;14.40;99.90
10905;DHT22;5505;51.450;9.254;2023-05-10T01:04:22;14.50;99.90
10905;DHT22;5505;51.450;9.254;2023-05-10T01:07:10;14.50;99.90
10905;DHT22;5505;51.450;9.254;2023-05-10T01:09:57;15.10;99.90
10905;DHT22;5505;51.450;9.254;2023-05-10T01:12:46;14.50;99.90
10905;DHT22;5505;51.450;9.254;2023-05-10T01:15:33;14.50;99.90
10905;DHT22;5505;51.450;9.254;2023-05-10T01:18:22;15.00;99.90
10905;DHT22;5505;51.450;9.254;2023-05-10T01:21:17;14.80;99.90
10905;DHT22;5505;51.450;9.254;2023-05-10T01:24:37;14.40;99.90
10905;DHT22;5505;51.450;9.254;2023-05-10T01:27:52;14.40;99.90
10905;DHT22;5505;51.450;9.254;2023-05-10T01:31:08;14.40;99.90
10905;DHT22;5505;51.450;9.254;2023-05-10T01:34:03;14.40;99.90
10905;DHT22;5505;51.450;9.254;2023-05-10T01:36:58;14.40;99.90
10905;DHT22;5505;51.450;9.254;2023-05-10T01:39:51;14.40;99.90
10905;DHT22;5505;51.450;9.254;2023-05-10T01:42:47;14.40;99.90
10905;DHT22;5505;51.450;9.254;2023-05-10T01:45:41;14.30;99.90
10905;DHT22;5505;51.450;9.254;2023-05-10T01:48:30;14.30;99.90
10905;DHT22;5505;51.450;9.254;2023-05-10T01:51:23;14.20;99.90
10905;DHT22;5505;51.450;9.254;2023-05-10T01:54:13;14.30;99.90
10905;DHT22;5505;51.450;9.254;2023-05-10T01:57:03;14.20;99.90
10905;DHT22;5505;51.450;9.254;2023-05-10T01:59:52;14.20;99.90
10905;DHT22;5505;51.450;9.254;2023-05-10T02:02:42;14.40;99.90
10905;DHT22;5505;51.450;9.254;2023-05-10T02:05:32;14.20;99.90
10905;DHT22;5505;51.450;9.254;2023-05-10T02:08:22;14.20;99.90
10905;DHT22;5505;51.450;9.254;2023-05-10T02:11:11;14.20;99.90
10905;DHT22;5505;51.450;9.254;2023-05-10T02:13:59;14.20;99.90
10905;DHT22;5505;51.450;9.254;2023-05-10T02:16:48;14.30;99.90
10905;DHT22;5505;51.450;9.254;2023-05-10T02:19:39;14.20;99.90
10905;DHT22;5505;51.450;9.254;2023-05-10T02:22:27;14.20;99.90
10905;DHT22;5505;51.450;9.254;2023-05-10T02:25:18;14.30;99.90
10905;DHT22;5505;51.450;9.254;2023-05-10T02:28:07;14.10;99.90
10905;DHT22;5505;51.450;9.254;2023-05-10T02:30:55;14.30;99.90
10905;DHT22;5505;51.450;9.254;2023-05-10T02:33:43;14.30;99.90
10905;DHT22;5505;51.450;9.254;2023-05-10T02:36:31;14.40;99.90
10905;DHT22;5505;51.450;9.254;2023-05-10T02:39:19;14.40;99.90
10905;DHT22;5505;51.450;9.254;2023-05-10T02:42:07;14.50;99.90
10905;DHT22;5505;51.450;9.254;2023-05-10T02:44:59;15.10;99.90
10905;DHT22;5505;51.450;9.254;2023-05-10T02:47:47;15.20;99.90
10905;DHT22;5505;51.450;9.254;2023-05-10T02:50:35;14.50;99.90
10905;DHT22;5505;51.450;9.254;2023-05-10T02:53:30;14.60;99.90
10905;DHT22;5505;51.450;9.254;2023-05-10T02:56:24;14.60;99.90
10905;DHT22;5505;51.450;9.254;2023-05-10T02:59:13;14.50;99.90
10905;DHT22;5505;51.450;9.254;2023-05-10T03:02:00;14.30;99.90
10905;DHT22;5505;51.450;9.254;2023-05-10T03:04:47;14.20;99.90
10905;DHT22;5505;51.450;9.254;2023-05-10T03:07:34;14.10;99.90
10905;DHT22;5505;51.450;9.254;2023-05-10T03:10:22;14.00;99.90
10905;DHT22;5505;51.450;9.254;2023-05-10T03:13:19;14.00;99.90
10905;DHT22;5505;51.450;9.254;2023-05-10T03:16:12;13.90;99.90
10905;DHT22;5505;51.450;9.254;2023-05-10T03:19:09;14.90;99.90
10905;DHT22;5505;51.450;9.254;2023-05-10T03:21:59;13.80;99.90
10905;DHT22;5505;51.450;9.254;2023-05-10T03:24:50;13.70;99.90
10905;DHT22;5505;51.450;9.254;2023-05-10T03:27:40;13.60;99.90
10905;DHT22;5505;51.450;9.254;2023-05-10T03:30:28;13.60;99.90
10905;DHT22;5505;51.450;9.254;2023-05-10T03:33:17;13.60;99.90
10905;DHT22;5505;51.450;9.254;2023-05-10T03:36:04;13.50;99.90
10905;DHT22;5505;51.450;9.254;2023-05-10T03:38:51;13.50;99.90
10905;DHT22;5505;51.450;9.254;2023-05-10T03:41:37;13.50;99.90
10905;DHT22;5505;51.450;9.254;2023-05-10T03:44:24;13.50;99.90
10905;DHT22;5505;51.450;9.254;2023-05-10T03:47:11;13.50;99.90
10905;DHT22;5505;51.450;9.254;2023-05-10T03:49:59;13.40;99.90
10905;DHT22;5505;51.450;9.254;2023-05-10T03:52:46;13.40;99.90
10905;DHT22;5505;51.450;9.254;2023-05-10T03:55:33;13.40;99.90
10905;DHT22;5505;51.450;9.254;2023-05-10T03:58:21;13.40;99.90
10905;DHT22;5505;51.450;9.254;2023-05-10T04:01:08;13.40;99.90
10905;DHT22;5505;51.450;9.254;2023-05-10T04:03:55;13.40;99.90
10905;DHT22;5505;51.450;9.254;2023-05-10T04:06:43;13.30;99.90
10905;DHT22;5505;51.450;9.254;2023-05-10T04:09:30;13.40;99.90
10905;DHT22;5505;51.450;9.254;2023-05-10T04:12:16;13.30;99.90
10905;DHT22;5505;51.450;9.254;2023-05-10T04:15:04;13.30;99.90
10905;DHT22;5505;51.450;9.254;2023-05-10T04:17:52;13.30;99.90
10905;DHT22;5505;51.450;9.254;2023-05-10T04:20:39;13.40;99.90
10905;DHT22;5505;51.450;9.254;2023-05-10T04:23:27;13.40;99.90
10905;DHT22;5505;51.450;9.254;2023-05-10T04:26:14;13.30;99.90
10905;DHT22;5505;51.450;9.254;2023-05-10T04:29:00;13.30;99.90
10905;DHT22;5505;51.450;9.254;2023-05-10T04:31:47;13.30;99.90
10905;DHT22;5505;51.450;9.254;2023-05-10T04:34:34;13.20;99.90
10905;DHT22;5505;51.450;9.254;2023-05-10T04:37:21;13.20;99.90
10905;DHT22;5505;51.450;9.254;2023-05-10T04:40:10;13.30;99.90
10905;DHT22;5505;51.450;9.254;2023-05-10T04:42:58;13.50;99.90
10905;DHT22;5505;51.450;9.254;2023-05-10T04:45:44;13.20;99.90
10905;DHT22;5505;51.450;9.254;2023-05-10T04:48:31;13.20;99.90
10905;DHT22;5505;51.450;9.254;2023-05-10T04:51:18;13.20;99.90
10905;DHT22;5505;51.450;9.254;2023-05-10T04:54:05;13.20;99.90
10905;DHT22;5505;51.450;9.254;2023-05-10T04:56:53;13.30;99.90
10905;DHT22;5505;51.450;9.254;2023-05-10T04:59:40;13.30;99.90
10905;DHT22;5505;51.450;9.254;2023-05-10T05:02:27;13.30;99.90
10905;DHT22;5505;51.450;9.254;2023-05-10T05:05:14;13.30;99.90
10905;DHT22;5505;51.450;9.254;2023-05-10T05:08:01;13.30;99.90
10905;DHT22;5505;51.450;9.254;2023-05-10T05:10:48;13.30;99.90
10905;DHT22;5505;51.450;9.254;2023-05-10T05:13:37;13.30;99.90
10905;DHT22;5505;51.450;9.254;2023-05-10T05:16:24;13.30;99.90
10905;DHT22;5505;51.450;9.254;2023-05-10T05:19:11;13.30;99.90
10905;DHT22;5505;51.450;9.254;2023-05-10T05:21:57;13.20;99.90
10905;DHT22;5505;51.450;9.254;2023-05-10T05:24:44;13.20;99.90
10905;DHT22;5505;51.450;9.254;2023-05-10T05:27:31;13.20;99.90
10905;DHT22;5505;51.450;9.254;2023-05-10T05:30:19;13.20;99.90
10905;DHT22;5505;51.450;9.254;2023-05-10T05:33:06;13.20;99.90
10905;DHT22;5505;51.450;9.254;2023-05-10T05:35:53;13.20;99.90
10905;DHT22;5505;51.450;9.254;2023-05-10T05:38:40;13.70;99.90
10905;DHT22;5505;51.450;9.254;2023-05-10T05:41:26;13.30;99.90
10905;DHT22;5505;51.450;9.254;2023-05-10T05:44:13;13.30;99.90
10905;DHT22;5505;51.450;9.254;2023-05-10T05:47:01;13.30;99.90
10905;DHT22;5505;51.450;9.254;2023-05-10T05:49:48;13.20;99.90
10905;DHT22;5505;51.450;9.254;2023-05-10T05:52:35;13.20;99.90
10905;DHT22;5505;51.450;9.254;2023-05-10T05:55:22;13.20;99.90
10905;DHT22;5505;51.450;9.254;2023-05-10T05:58:09;13.20;99.90
10905;DHT22;5505;51.450;9.254;2023-05-10T06:00:56;13.20;99.90
10905;DHT22;5505;51.450;9.254;2023-05-10T06:03:44;13.20;99.90
10905;DHT22;5505;51.450;9.254;2023-05-10T06:06:31;13.20;99.90
10905;DHT22;5505;51.450;9.254;2023-05-10T06:09:18;13.20;99.90
10905;DHT22;5505;51.450;9.254;2023-05-10T06:12:05;13.20;99.90
10905;DHT22;5505;51.450;9.254;2023-05-10T06:14:51;13.20;99.90
10905;DHT22;5505;51.450;9.254;2023-05-10T06:17:38;13.10;99.90
10905;DHT22;5505;51.450;9.254;2023-05-10T06:20:27;13.10;99.90
10905;DHT22;5505;51.450;9.254;2023-05-10T06:23:13;13.10;99.90
10905;DHT22;5505;51.450;9.254;2023-05-10T06:26:00;13.10;99.90
10905;DHT22;5505;51.450;9.254;2023-05-10T06:28:47;13.10;99.90
10905;DHT22;5505;51.450;9.254;2023-05-10T06:31:34;13.10;99.90
10905;DHT22;5505;51.450;9.254;2023-05-10T06:34:20;13.10;99.90
10905;DHT22;5505;51.450;9.254;2023-05-10T06:37:09;13.10;99.90
10905;DHT22;5505;51.450;9.254;2023-05-10T06:39:56;13.10;99.90
10905;DHT22;5505;51.450;9.254;2023-05-10T06:42:42;13.00;99.90
10905;DHT22;5505;51.450;9.254;2023-05-10T06:45:30;13.10;99.90
10905;DHT22;5505;51.450;9.254;2023-05-10T06:48:17;13.10;99.90
10905;DHT22;5505;51.450;9.254;2023-05-10T06:51:04;13.10;99.90
10905;DHT22;5505;51.450;9.254;2023-05-10T06:53:52;13.10;99.90
10905;DHT22;5505;51.450;9.254;2023-05-10T06:56:39;13.20;99.90
10905;DHT22;5505;51.450;9.254;2023-05-10T06:59:26;13.20;99.90
10905;DHT22;5505;51.450;9.254;2023-05-10T07:02:13;13.30;99.90
10905;DHT22;5505;51.450;9.254;2023-05-10T07:05:01;13.30;99.90
10905;DHT22;5505;51.450;9.254;2023-05-10T07:07:48;13.30;99.90
10905;DHT22;5505;51.450;9.254;2023-05-10T07:10:36;13.30;99.90
10905;DHT22;5505;51.450;9.254;2023-05-10T07:13:23;13.30;99.90
10905;DHT22;5505;51.450;9.254;2023-05-10T07:16:10;13.40;99.90
10905;DHT22;5505;51.450;9.254;2023-05-10T07:18:57;13.50;99.90
10905;DHT22;5505;51.450;9.254;2023-05-10T07:21:43;13.50;99.90
10905;DHT22;5505;51.450;9.254;2023-05-10T07:24:31;13.50;99.90
10905;DHT22;5505;51.450;9.254;2023-05-10T07:27:19;13.60;99.90
10905;DHT22;5505;51.450;9.254;2023-05-10T07:30:07;13.60;99.90
10905;DHT22;5505;51.450;9.254;2023-05-10T07:32:54;13.60;99.90
10905;DHT22;5505;51.450;9.254;2023-05-10T07:35:41;13.70;99.90
10905;DHT22;5505;51.450;9.254;2023-05-10T07:38:28;13.90;99.90
10905;DHT22;5505;51.450;9.254;2023-05-10T07:41:15;13.90;99.90
10905;DHT22;5505;51.450;9.254;2023-05-10T07:44:03;13.90;99.90
10905;DHT22;5505;51.450;9.254;2023-05-10T07:46:50;13.90;99.90
10905;DHT22;5505;51.450;9.254;2023-05-10T07:49:37;15.10;99.90
10905;DHT22;5505;51.450;9.254;2023-05-10T07:52:24;14.00;99.90
10905;DHT22;5505;51.450;9.254;2023-05-10T07:55:11;14.00;99.90
10905;DHT22;5505;51.450;9.254;2023-05-10T07:57:58;14.10;99.90
10905;DHT22;5505;51.450;9.254;2023-05-10T08:00:47;14.20;99.90
10905;DHT22;5505;51.450;9.254;2023-05-10T08:03:34;14.20;99.90
10905;DHT22;5505;51.450;9.254;2023-05-10T08:06:21;14.30;99.90
10905;DHT22;5505;51.450;9.254;2023-05-10T08:09:08;14.40;99.90
10905;DHT22;5505;51.450;9.254;2023-05-10T08:11:55;14.40;99.90
10905;DHT22;5505;51.450;9.254;2023-05-10T08:14:42;14.50;99.90
10905;DHT22;5505;51.450;9.254;2023-05-10T08:17:31;14.50;99.90
10905;DHT22;5505;51.450;9.254;2023-05-10T08:20:17;14.60;99.90
10905;DHT22;5505;51.450;9.254;2023-05-10T08:23:04;14.60;99.90
10905;DHT22;5505;51.450;9.254;2023-05-10T08:25:51;15.60;99.90
10905;DHT22;5505;51.450;9.254;2023-05-10T08:32:20;14.70;99.90
10905;DHT22;5505;51.450;9.254;2023-05-10T08:35:08;14.70;99.90
10905;DHT22;5505;51.450;9.254;2023-05-10T08:37:55;14.70;99.90
10905;DHT22;5505;51.450;9.254;2023-05-10T08:40:43;14.70;99.90
10905;DHT22;5505;51.450;9.254;2023-05-10T08:43:30;14.80;99.90
10905;DHT22;5505;51.450;9.254;2023-05-10T08:46:18;14.80;99.90
10905;DHT22;5505;51.450;9.254;2023-05-10T08:49:07;14.80;99.90
10905;DHT22;5505;51.450;9.254;2023-05-10T08:51:56;14.80;99.90
10905;DHT22;5505;51.450;9.254;2023-05-10T08:54:44;14.70;99.90
10905;DHT22;5505;51.450;9.254;2023-05-10T08:57:30;14.70;99.90
10905;DHT22;5505;51.450;9.254;2023-05-10T09:00:18;14.70;99.90
10905;DHT22;5505;51.450;9.254;2023-05-10T09:03:06;14.70;99.90
10905;DHT22;5505;51.450;9.254;2023-05-10T09:05:52;14.70;99.90
10905;DHT22;5505;51.450;9.254;2023-05-10T09:08:43;14.70;99.90
10905;DHT22;5505;51.450;9.254;2023-05-10T09:11:31;14.50;99.90
10905;DHT22;5505;51.450;9.254;2023-05-10T09:14:18;14.30;99.90
10905;DHT22;5505;51.450;9.254;2023-05-10T09:17:06;14.70;99.90
10905;DHT22;5505;51.450;9.254;2023-05-10T09:19:57;14.20;99.90
10905;DHT22;5505;51.450;9.254;2023-05-10T09:22:44;14.40;99.90
10905;DHT22;5505;51.450;9.254;2023-05-10T09:25:33;14.40;99.90
10905;DHT22;5505;51.450;9.254;2023-05-10T09:28:20;14.50;99.90
10905;DHT22;5505;51.450;9.254;2023-05-10T09:31:06;14.50;99.90
10905;DHT22;5505;51.450;9.254;2023-05-10T09:33:53;15.60;99.90
10905;DHT22;5505;51.450;9.254;2023-05-10T09:36:51;14.90;99.90
10905;DHT22;5505;51.450;9.254;2023-05-10T09:39:38;15.20;99.90
10905;DHT22;5505;51.450;9.254;2023-05-10T09:42:26;15.50;99.90
10905;DHT22;5505;51.450;9.254;2023-05-10T09:45:13;15.70;99.90
10905;DHT22;5505;51.450;9.254;2023-05-10T09:48:01;16.30;99.90
10905;DHT22;5505;51.450;9.254;2023-05-10T09:50:56;16.00;99.90
10905;DHT22;5505;51.450;9.254;2023-05-10T09:53:43;16.20;99.90
10905;DHT22;5505;51.450;9.254;2023-05-10T09:56:34;16.40;99.90
10905;DHT22;5505;51.450;9.254;2023-05-10T09:59:25;16.40;99.90
10905;DHT22;5505;51.450;9.254;2023-05-10T10:02:13;16.50;99.90
10905;DHT22;5505;51.450;9.254;2023-05-10T10:05:01;16.40;99.90
10905;DHT22;5505;51.450;9.254;2023-05-10T10:07:48;16.40;99.90
10905;DHT22;5505;51.450;9.254;2023-05-10T10:10:35;16.30;99.90
10905;DHT22;5505;51.450;9.254;2023-05-10T10:13:22;16.20;99.90
10905;DHT22;5505;51.450;9.254;2023-05-10T10:16:10;16.10;99.90
10905;DHT22;5505;51.450;9.254;2023-05-10T10:18:58;17.10;99.90
10905;DHT22;5505;51.450;9.254;2023-05-10T10:21:45;16.10;99.90
10905;DHT22;5505;51.450;9.254;2023-05-10T10:24:31;16.10;99.90
10905;DHT22;5505;51.450;9.254;2023-05-10T10:27:23;16.20;99.90
10905;DHT22;5505;51.450;9.254;2023-05-10T10:30:21;16.40;99.90
10905;DHT22;5505;51.450;9.254;2023-05-10T10:33:51;16.50;99.90
10905;DHT22;5505;51.450;9.254;2023-05-10T10:36:42;16.90;99.90
10905;DHT22;5505;51.450;9.254;2023-05-10T10:39:31;17.20;99.90
10905;DHT22;5505;51.450;9.254;2023-05-10T10:42:44;17.20;99.90
10905;DHT22;5505;51.450;9.254;2023-05-10T10:45:32;17.10;99.90
10905;DHT22;5505;51.450;9.254;2023-05-10T10:48:24;17.00;99.90
10905;DHT22;5505;51.450;9.254;2023-05-10T10:51:13;17.00;99.90
10905;DHT22;5505;51.450;9.254;2023-05-10T10:54:09;16.90;99.90
10905;DHT22;5505;51.450;9.254;2023-05-10T10:57:11;16.90;99.90
10905;DHT22;5505;51.450;9.254;2023-05-10T11:00:25;16.90;99.90
10905;DHT22;5505;51.450;9.254;2023-05-10T11:03:13;16.70;99.90
10905;DHT22;5505;51.450;9.254;2023-05-10T11:06:05;16.70;99.90
10905;DHT22;5505;51.450;9.254;2023-05-10T11:08:53;16.90;99.90
10905;DHT22;5505;51.450;9.254;2023-05-10T11:11:58;17.10;99.90
10905;DHT22;5505;51.450;9.254;2023-05-10T11:14:49;18.20;99.90
10905;DHT22;5505;51.450;9.254;2023-05-10T11:17:36;17.60;99.90
10905;DHT22;5505;51.450;9.254;2023-05-10T11:20:23;18.00;99.90
10905;DHT22;5505;51.450;9.254;2023-05-10T11:23:19;19.10;99.90
10905;DHT22;5505;51.450;9.254;2023-05-10T11:26:08;18.30;99.90
10905;DHT22;5505;51.450;9.254;2023-05-10T11:28:56;18.20;99.90
10905;DHT22;5505;51.450;9.254;2023-05-10T11:31:45;18.00;99.90
10905;DHT22;5505;51.450;9.254;2023-05-10T11:34:32;17.60;99.90
10905;DHT22;5505;51.450;9.254;2023-05-10T11:37:20;17.30;99.90
10905;DHT22;5505;51.450;9.254;2023-05-10T11:40:09;17.20;99.90
10905;DHT22;5505;51.450;9.254;2023-05-10T11:42:56;17.00;99.90
10905;DHT22;5505;51.450;9.254;2023-05-10T11:45:43;17.20;99.90
10905;DHT22;5505;51.450;9.254;2023-05-10T11:48:31;17.20;99.90
10905;DHT22;5505;51.450;9.254;2023-05-10T11:51:20;17.30;99.90
10905;DHT22;5505;51.450;9.254;2023-05-10T11:54:08;17.30;99.90
10905;DHT22;5505;51.450;9.254;2023-05-10T11:56:57;17.40;99.90
10905;DHT22;5505;51.450;9.254;2023-05-10T11:59:43;17.50;99.90
10905;DHT22;5505;51.450;9.254;2023-05-10T12:02:31;17.60;99.90
10905;DHT22;5505;51.450;9.254;2023-05-10T12:05:18;17.60;99.90
10905;DHT22;5505;51.450;9.254;2023-05-10T12:08:12;17.80;99.90
10905;DHT22;5505;51.450;9.254;2023-05-10T12:11:06;17.80;99.90
10905;DHT22;5505;51.450;9.254;2023-05-10T12:13:55;18.00;99.90
10905;DHT22;5505;51.450;9.254;2023-05-10T12:16:43;18.10;99.90
10905;DHT22;5505;51.450;9.254;2023-05-10T12:19:37;18.10;99.90
10905;DHT22;5505;51.450;9.254;2023-05-10T12:22:23;18.10;99.90
10905;DHT22;5505;51.450;9.254;2023-05-10T12:25:10;18.00;99.90
10905;DHT22;5505;51.450;9.254;2023-05-10T12:27:58;18.10;99.90
10905;DHT22;5505;51.450;9.254;2023-05-10T12:30:48;18.20;99.90
10905;DHT22;5505;51.450;9.254;2023-05-10T12:33:38;18.30;99.90
10905;DHT22;5505;51.450;9.254;2023-05-10T12:36:30;18.20;99.90
10905;DHT22;5505;51.450;9.254;2023-05-10T12:39:18;18.00;99.90
10905;DHT22;5505;51.450;9.254;2023-05-10T12:42:05;18.80;99.90
10905;DHT22;5505;51.450;9.254;2023-05-10T12:44:55;17.70;99.90
10905;DHT22;5505;51.450;9.254;2023-05-10T12:47:44;17.70;99.90
10905;DHT22;5505;51.450;9.254;2023-05-10T12:50:30;17.70;99.90
10905;DHT22;5505;51.450;9.254;2023-05-10T12:53:17;17.70;99.90
10905;DHT22;5505;51.450;9.254;2023-05-10T12:56:05;17.60;99.90
10905;DHT22;5505;51.450;9.254;2023-05-10T12:58:52;17.50;99.90
10905;DHT22;5505;51.450;9.254;2023-05-10T13:01:38;17.50;99.90
10905;DHT22;5505;51.450;9.254;2023-05-10T13:04:27;17.50;99.90
10905;DHT22;5505;51.450;9.254;2023-05-10T13:07:13;17.50;99.90
10905;DHT22;5505;51.450;9.254;2023-05-10T13:10:00;17.40;99.90
10905;DHT22;5505;51.450;9.254;2023-05-10T13:12:47;17.20;99.90
10905;DHT22;5505;51.450;9.254;2023-05-10T13:15:34;18.40;99.90
10905;DHT22;5505;51.450;9.254;2023-05-10T13:18:21;16.40;99.90
10905;DHT22;5505;51.450;9.254;2023-05-10T13:21:09;15.90;99.90
10905;DHT22;5505;51.450;9.254;2023-05-10T13:23:56;15.60;99.90
10905;DHT22;5505;51.450;9.254;2023-05-10T13:26:43;15.40;99.90
10905;DHT22;5505;51.450;9.254;2023-05-10T13:29:30;15.20;99.90
10905;DHT22;5505;51.450;9.254;2023-05-10T13:32:17;15.00;99.90
10905;DHT22;5505;51.450;9.254;2023-05-10T13:35:07;15.00;99.90
10905;DHT22;5505;51.450;9.254;2023-05-10T13:37:55;14.90;99.90
10905;DHT22;5505;51.450;9.254;2023-05-10T13:40:43;14.80;99.90
10905;DHT22;5505;51.450;9.254;2023-05-10T13:43:30;14.60;99.90
10905;DHT22;5505;51.450;9.254;2023-05-10T13:46:17;15.50;99.90
10905;DHT22;5505;51.450;9.254;2023-05-10T13:49:04;14.10;99.90
10905;DHT22;5505;51.450;9.254;2023-05-10T13:51:51;14.00;99.90
10905;DHT22;5505;51.450;9.254;2023-05-10T13:54:39;13.90;99.90
10905;DHT22;5505;51.450;9.254;2023-05-10T13:57:26;13.80;99.90
10905;DHT22;5505;51.450;9.254;2023-05-10T14:00:14;13.70;99.90
10905;DHT22;5505;51.450;9.254;2023-05-10T14:03:01;13.70;99.90
10905;DHT22;5505;51.450;9.254;2023-05-10T14:05:50;13.50;99.90
10905;DHT22;5505;51.450;9.254;2023-05-10T14:08:37;13.50;99.90
10905;DHT22;5505;51.450;9.254;2023-05-10T14:11:25;13.50;99.90
10905;DHT22;5505;51.450;9.254;2023-05-10T14:14:12;13.60;99.90
10905;DHT22;5505;51.450;9.254;2023-05-10T14:16:59;13.70;99.90
10905;DHT22;5505;51.450;9.254;2023-05-10T14:19:46;13.70;99.90
10905;DHT22;5505;51.450;9.254;2023-05-10T14:22:33;13.60;99.90
10905;DHT22;5505;51.450;9.254;2023-05-10T14:25:20;13.70;99.90
10905;DHT22;5505;51.450;9.254;2023-05-10T14:28:08;13.70;99.90
10905;DHT22;5505;51.450;9.254;2023-05-10T14:30:54;13.70;99.90
10905;DHT22;5505;51.450;9.254;2023-05-10T14:33:41;13.70;99.90
10905;DHT22;5505;51.450;9.254;2023-05-10T14:36:28;13.60;99.90
10905;DHT22;5505;51.450;9.254;2023-05-10T14:39:15;13.80;99.90
10905;DHT22;5505;51.450;9.254;2023-05-10T14:42:02;13.60;99.90
10905;DHT22;5505;51.450;9.254;2023-05-10T14:44:50;13.70;99.90
10905;DHT22;5505;51.450;9.254;2023-05-10T14:47:37;13.70;99.90
10905;DHT22;5505;51.450;9.254;2023-05-10T14:50:24;14.30;99.90
10905;DHT22;5505;51.450;9.254;2023-05-10T14:53:11;13.80;99.90
10905;DHT22;5505;51.450;9.254;2023-05-10T14:55:58;13.80;99.90
10905;DHT22;5505;51.450;9.254;2023-05-10T14:58:46;13.80;99.90
10905;DHT22;5505;51.450;9.254;2023-05-10T15:01:34;13.90;99.90
10905;DHT22;5505;51.450;9.254;2023-05-10T15:04:23;13.80;99.90
10905;DHT22;5505;51.450;9.254;2023-05-10T15:07:10;13.80;99.90
10905;DHT22;5505;51.450;9.254;2023-05-10T15:09:59;13.90;99.90
10905;DHT22;5505;51.450;9.254;2023-05-10T15:12:46;13.90;99.90
10905;DHT22;5505;51.450;9.254;2023-05-10T15:15:33;13.90;99.90
10905;DHT22;5505;51.450;9.254;2023-05-10T15:18:21;12.40;99.90
10905;DHT22;5505;51.450;9.254;2023-05-10T15:21:08;14.00;99.90
10905;DHT22;5505;51.450;9.254;2023-05-10T15:23:55;14.00;99.90
10905;DHT22;5505;51.450;9.254;2023-05-10T15:26:42;14.00;99.90
10905;DHT22;5505;51.450;9.254;2023-05-10T15:29:29;14.00;99.90
10905;DHT22;5505;51.450;9.254;2023-05-10T15:32:16;14.20;99.90
10905;DHT22;5505;51.450;9.254;2023-05-10T15:35:06;14.20;99.90
10905;DHT22;5505;51.450;9.254;2023-05-10T15:37:52;14.20;99.90
10905;DHT22;5505;51.450;9.254;2023-05-10T15:40:39;14.20;99.90
10905;DHT22;5505;51.450;9.254;2023-05-10T15:43:26;14.30;99.90
10905;DHT22;5505;51.450;9.254;2023-05-10T15:46:13;14.20;99.90
10905;DHT22;5505;51.450;9.254;2023-05-10T15:49:00;14.30;99.90
10905;DHT22;5505;51.450;9.254;2023-05-10T15:51:48;14.20;99.90
10905;DHT22;5505;51.450;9.254;2023-05-10T15:54:34;14.20;99.90
10905;DHT22;5505;51.450;9.254;2023-05-10T15:57:21;14.10;99.90
10905;DHT22;5505;51.450;9.254;2023-05-10T16:00:09;14.00;99.90
10905;DHT22;5505;51.450;9.254;2023-05-10T16:02:58;14.00;99.90
10905;DHT22;5505;51.450;9.254;2023-05-10T16:05:45;13.90;99.90
10905;DHT22;5505;51.450;9.254;2023-05-10T16:08:34;13.90;99.90
10905;DHT22;5505;51.450;9.254;2023-05-10T16:11:21;13.80;99.90
10905;DHT22;5505;51.450;9.254;2023-05-10T16:14:07;13.90;99.90
10905;DHT22;5505;51.450;9.254;2023-05-10T16:16:54;13.90;99.90
10905;DHT22;5505;51.450;9.254;2023-05-10T16:19:41;13.90;99.90
10905;DHT22;5505;51.450;9.254;2023-05-10T16:22:28;14.60;99.90
10905;DHT22;5505;51.450;9.254;2023-05-10T16:25:16;13.90;99.90
10905;DHT22;5505;51.450;9.254;2023-05-10T16:28:03;14.10;99.90
10905;DHT22;5505;51.450;9.254;2023-05-10T16:30:50;13.90;99.90
10905;DHT22;5505;51.450;9.254;2023-05-10T16:33:37;14.00;99.90
10905;DHT22;5505;51.450;9.254;2023-05-10T16:36:24;13.90;99.90
10905;DHT22;5505;51.450;9.254;2023-05-10T16:39:10;14.00;99.90
10905;DHT22;5505;51.450;9.254;2023-05-10T16:41:58;14.00;99.90
10905;DHT22;5505;51.450;9.254;2023-05-10T16:44:45;13.90;99.90
10905;DHT22;5505;51.450;9.254;2023-05-10T16:47:32;14.00;99.90
10905;DHT22;5505;51.450;9.254;2023-05-10T16:50:19;13.90;99.90
10905;DHT22;5505;51.450;9.254;2023-05-10T16:53:05;13.90;99.90
10905;DHT22;5505;51.450;9.254;2023-05-10T16:55:53;13.90;99.90
10905;DHT22;5505;51.450;9.254;2023-05-10T16:58:41;14.00;99.90
10905;DHT22;5505;51.450;9.254;2023-05-10T17:01:28;14.00;99.90
10905;DHT22;5505;51.450;9.254;2023-05-10T17:04:15;14.00;99.90
10905;DHT22;5505;51.450;9.254;2023-05-10T17:07:02;13.90;99.90
10905;DHT22;5505;51.450;9.254;2023-05-10T17:09:49;13.90;99.90
10905;DHT22;5505;51.450;9.254;2023-05-10T17:12:36;13.90;99.90
10905;DHT22;5505;51.450;9.254;2023-05-10T17:15:24;13.90;99.90
10905;DHT22;5505;51.450;9.254;2023-05-10T17:18:10;13.80;99.90
10905;DHT22;5505;51.450;9.254;2023-05-10T17:20:57;13.90;99.90
10905;DHT22;5505;51.450;9.254;2023-05-10T17:23:44;13.90;99.90
10905;DHT22;5505;51.450;9.254;2023-05-10T17:26:31;13.90;99.90
10905;DHT22;5505;51.450;9.254;2023-05-10T17:29:19;13.90;99.90
10905;DHT22;5505;51.450;9.254;2023-05-10T17:32:07;13.90;99.90
10905;DHT22;5505;51.450;9.254;2023-05-10T17:34:54;13.90;99.90
10905;DHT22;5505;51.450;9.254;2023-05-10T17:37:42;13.90;99.90
10905;DHT22;5505;51.450;9.254;2023-05-10T17:40:29;13.90;99.90
10905;DHT22;5505;51.450;9.254;2023-05-10T17:43:19;13.90;99.90
10905;DHT22;5505;51.450;9.254;2023-05-10T17:46:06;13.90;99.90
10905;DHT22;5505;51.450;9.254;2023-05-10T17:48:54;13.90;99.90
10905;DHT22;5505;51.450;9.254;2023-05-10T17:51:40;13.90;99.90
10905;DHT22;5505;51.450;9.254;2023-05-10T17:54:28;13.90;99.90
10905;DHT22;5505;51.450;9.254;2023-05-10T17:57:15;14.90;99.90
10905;DHT22;5505;51.450;9.254;2023-05-10T18:00:02;13.90;99.90
10905;DHT22;5505;51.450;9.254;2023-05-10T18:02:50;13.90;99.90